Terminal Aerodrome Forecast
Issued by NWS

Home | Current Version | Previous Version | Text Only | Print | Product List | Glossary On
Versions: 1 2 3 4 5 6 7 8 9 10 11 12 13 14 15 16 17 18 19 20 21 22 23 24 25 26 27 28 29 30
000
FTUS42 KTBW 200500
TAFPIE
TAF
KPIE 200540Z 2006/2106 35010KT P6SM SCT007 BKN015 OVC025
      TEMPO 2007/2011 6SM BR BKN007 OVC015
     FM201400 35008KT P6SM SCT015 BKN025
     FM201700 33008KT P6SM SCT025 BKN050
     FM210000 01009KT P6SM SCT050 SCT250=

USA.gov is the U.S. government's official web portal to all federal, state and local government web resources and services.